createdAt,value
2023-05-23T00:02:25.114Z,95015.34
2023-05-23T00:04:58.695Z,95014.47
2023-05-23T00:07:27.559Z,95000.66
2023-05-23T00:09:55.539Z,95009.38
2023-05-23T00:12:24.885Z,95001.84
2023-05-23T00:14:55.753Z,95007.28
2023-05-23T00:17:25.611Z,95001.72
2023-05-23T00:19:56.229Z,95003.03
2023-05-23T00:22:24.304Z,95002.09
2023-05-23T00:24:52.169Z,94994.28
2023-05-23T00:27:20.117Z,94992.47
2023-05-23T00:29:49.384Z,94993.13
2023-05-23T00:32:17.363Z,94991.00
2023-05-23T00:34:45.783Z,94990.13
2023-05-23T00:37:13.635Z,94979.00
2023-05-23T00:39:41.902Z,94953.63
2023-05-23T00:42:10.148Z,94984.75
2023-05-23T00:44:38.096Z,94909.34
2023-05-23T00:47:08.965Z,94982.69
2023-05-23T00:49:37.104Z,94990.19
2023-05-23T00:52:05.943Z,94984.16
2023-05-23T00:54:34.768Z,94948.81
2023-05-23T00:57:02.799Z,94969.13
2023-05-23T00:59:31.479Z,94978.50
2023-05-23T01:02:00.798Z,94986.00
2023-05-23T01:04:30.652Z,94946.38
2023-05-23T01:06:58.822Z,94980.63
2023-05-23T01:12:22.168Z,94982.72
2023-05-23T01:14:57.560Z,94981.81
2023-05-23T01:17:30.733Z,94892.22
2023-05-23T01:20:10.033Z,94973.41
2023-05-23T01:23:00.580Z,94974.63
2023-05-23T01:25:59.340Z,94965.94
2023-05-23T01:28:32.468Z,94998.13
2023-05-23T01:31:04.777Z,94995.59
2023-05-23T01:33:33.874Z,94990.97
2023-05-23T01:36:03.860Z,94928.41
2023-05-23T01:38:31.976Z,94978.88
2023-05-23T01:40:59.948Z,94995.31
2023-05-23T01:43:29.366Z,94961.16
2023-05-23T01:45:58.680Z,94934.41
2023-05-23T01:48:28.878Z,94982.50
2023-05-23T01:50:57.515Z,94928.97
2023-05-23T01:53:26.638Z,94972.88
2023-05-23T01:55:54.696Z,94981.94
2023-05-23T01:58:22.972Z,94977.09
2023-05-23T02:00:52.432Z,94966.91
2023-05-23T02:03:20.941Z,94989.00
2023-05-23T02:05:48.988Z,94988.41
2023-05-23T02:08:17.258Z,94981.47
2023-05-23T02:10:45.175Z,94981.19
2023-05-23T02:13:13.288Z,94974.38
2023-05-23T02:15:41.375Z,94992.16
2023-05-23T02:18:10.773Z,95000.56
2023-05-23T02:20:38.676Z,94992.75
2023-05-23T02:23:07.053Z,94981.34
2023-05-23T02:25:35.007Z,94989.72
2023-05-23T02:28:02.913Z,94981.91
2023-05-23T02:30:30.883Z,94962.03
2023-05-23T02:32:59.378Z,94984.31
2023-05-23T02:35:30.790Z,94979.06
2023-05-23T02:37:59.043Z,94979.38
2023-05-23T02:40:26.920Z,94977.72
2023-05-23T02:42:57.399Z,94972.00
2023-05-23T02:45:25.676Z,94962.22
2023-05-23T02:47:53.645Z,94979.47
2023-05-23T02:50:21.663Z,94971.84
2023-05-23T02:52:51.053Z,94976.34
2023-05-23T02:55:18.984Z,94967.19
2023-05-23T02:57:46.912Z,94974.69
2023-05-23T03:00:15.841Z,94969.72
2023-05-23T03:02:43.928Z,94943.06
2023-05-23T03:05:11.940Z,94966.97
2023-05-23T03:07:39.872Z,94974.38
2023-05-23T03:10:10.811Z,94971.34
2023-05-23T03:12:38.887Z,94967.44
2023-05-23T03:15:07.852Z,94963.50
2023-05-23T03:17:35.960Z,94958.06
2023-05-23T03:20:12.291Z,94988.13
2023-05-23T03:22:42.040Z,94960.09
2023-05-23T03:25:11.564Z,94987.47
2023-05-23T03:27:39.517Z,94990.19
2023-05-23T03:30:09.322Z,94999.16
2023-05-23T03:32:37.818Z,95006.41
2023-05-23T03:35:06.406Z,95009.13
2023-05-23T03:37:34.394Z,95007.63
2023-05-23T03:40:02.463Z,94928.41
2023-05-23T03:42:32.254Z,95000.50
2023-05-23T03:45:00.154Z,95017.28
2023-05-23T03:47:28.156Z,95017.28
2023-05-23T03:49:56.133Z,95015.91
2023-05-23T03:52:24.197Z,95017.00
2023-05-23T03:54:52.417Z,95013.22
2023-05-23T03:57:20.369Z,95021.22
2023-05-23T03:59:49.664Z,95036.28
2023-05-23T04:02:17.679Z,95023.94
2023-05-23T04:04:47.048Z,95029.63
2023-05-23T04:07:15.856Z,95021.84
2023-05-23T04:09:43.921Z,95027.38
2023-05-23T04:12:12.096Z,95028.94
2023-05-23T04:14:40.260Z,95025.63
2023-05-23T04:17:10.250Z,95025.06
2023-05-23T04:19:38.308Z,95013.16
2023-05-23T04:22:06.962Z,95018.88
2023-05-23T04:24:34.978Z,94996.00
2023-05-23T04:27:02.865Z,95026.09
2023-05-23T04:29:31.743Z,95032.13
2023-05-23T04:32:00.013Z,95037.22
2023-05-23T04:34:31.032Z,95033.03
2023-05-23T04:36:59.054Z,95036.03
2023-05-23T04:39:27.616Z,95032.16
2023-05-23T04:41:55.546Z,95044.78
2023-05-23T04:44:23.489Z,95039.38
2023-05-23T04:46:51.549Z,95011.97
2023-05-23T04:49:21.510Z,95027.94
2023-05-23T04:51:51.344Z,95028.38
2023-05-23T04:54:19.272Z,95036.06
2023-05-23T04:56:47.370Z,95030.66
2023-05-23T04:59:15.538Z,95042.69
2023-05-23T05:01:43.475Z,95025.53
2023-05-23T05:04:11.444Z,95001.75
2023-05-23T05:06:39.387Z,95040.00
2023-05-23T05:09:08.653Z,95050.22
2023-05-23T05:11:36.568Z,95051.44
2023-05-23T05:14:04.570Z,95051.25
2023-05-23T05:16:32.911Z,95043.59
2023-05-23T05:19:00.967Z,95049.47
2023-05-23T05:21:28.993Z,95052.31
2023-05-23T05:23:56.924Z,94967.63
2023-05-23T05:26:26.965Z,95014.72
2023-05-23T05:28:55.155Z,95049.63
2023-05-23T05:31:23.132Z,95053.09
2023-05-23T05:33:51.990Z,95033.97
2023-05-23T05:36:21.678Z,95047.22
2023-05-23T05:38:49.584Z,95048.38
2023-05-23T05:41:17.549Z,94913.94
2023-05-23T05:43:46.838Z,95058.28
2023-05-23T05:46:14.815Z,95046.09
2023-05-23T05:48:42.955Z,95043.25
2023-05-23T05:51:10.931Z,95039.84
2023-05-23T05:53:38.873Z,95023.88
2023-05-23T05:56:09.410Z,95024.38
2023-05-23T05:58:37.430Z,95031.69
2023-05-23T06:01:06.881Z,95010.06
2023-05-23T06:03:35.333Z,95018.59
2023-05-23T06:06:03.494Z,95008.41
2023-05-23T06:08:31.369Z,95010.09
2023-05-23T06:10:59.269Z,94999.06
2023-05-23T06:13:27.190Z,95004.81
2023-05-23T06:15:55.222Z,94971.38
2023-05-23T06:18:24.525Z,95007.25
2023-05-23T06:20:52.458Z,95013.47
2023-05-23T06:23:20.387Z,94996.31
2023-05-23T06:25:48.368Z,94960.13
2023-05-23T06:28:16.309Z,95012.50
2023-05-23T06:30:44.544Z,95007.19
2023-05-23T06:33:13.379Z,95012.81
2023-05-23T06:35:42.757Z,95013.56
2023-05-23T06:38:10.759Z,95019.59
2023-05-23T06:40:38.883Z,95000.53
2023-05-23T06:43:07.065Z,95008.66
2023-05-23T06:45:36.251Z,95020.03
2023-05-23T06:48:04.290Z,95010.06
2023-05-23T06:50:32.268Z,95010.16
2023-05-23T06:53:01.554Z,95013.59
2023-05-23T06:55:30.538Z,95015.94
2023-05-23T06:57:58.549Z,94954.84
2023-05-23T07:00:26.755Z,94996.84
2023-05-23T07:02:54.786Z,94979.69
2023-05-23T07:05:22.891Z,94998.63
2023-05-23T07:07:50.958Z,95006.75
2023-05-23T07:10:21.232Z,94994.84
2023-05-23T07:12:49.377Z,94992.63
2023-05-23T07:15:17.534Z,94950.63
2023-05-23T07:17:45.848Z,94994.94
2023-05-23T07:20:13.792Z,94992.34
2023-05-23T07:22:41.736Z,94983.44
2023-05-23T07:25:10.251Z,94981.31
2023-05-23T07:27:39.745Z,94969.38
2023-05-23T07:30:10.630Z,94972.09
2023-05-23T07:32:39.234Z,94968.59
2023-05-23T07:35:08.266Z,94956.13
2023-05-23T07:37:36.313Z,94960.66
2023-05-23T07:40:06.220Z,94960.22
2023-05-23T07:42:34.147Z,94927.34
2023-05-23T07:45:03.792Z,94959.72
2023-05-23T07:47:31.730Z,94952.75
2023-05-23T07:50:02.296Z,94953.50
2023-05-23T07:52:31.311Z,94958.72
2023-05-23T07:54:59.472Z,94934.56
2023-05-23T07:57:28.008Z,94947.53
2023-05-23T07:59:55.969Z,94958.44
2023-05-23T08:02:25.384Z,94937.81
2023-05-23T08:04:53.511Z,94940.06
2023-05-23T08:07:22.047Z,94949.28
2023-05-23T08:09:50.004Z,94955.25
2023-05-23T08:12:18.054Z,94947.28
2023-05-23T08:14:51.676Z,94950.00
2023-05-23T08:17:20.129Z,94926.59
2023-05-23T08:19:49.611Z,94948.97
2023-05-23T08:22:17.560Z,94951.97
2023-05-23T08:24:45.544Z,94942.53
2023-05-23T08:27:13.559Z,94930.84
2023-05-23T08:29:42.238Z,94948.28
2023-05-23T08:32:10.193Z,94948.28
2023-05-23T08:34:38.193Z,94948.03
2023-05-23T08:37:07.573Z,94943.78
2023-05-23T08:39:35.454Z,94938.81
2023-05-23T08:42:03.546Z,94942.03
2023-05-23T08:44:31.540Z,94948.75
2023-05-23T08:47:05.593Z,94941.81
2023-05-23T08:49:33.717Z,94945.28
2023-05-23T08:52:04.097Z,94945.78
2023-05-23T08:54:34.291Z,94934.78
2023-05-23T08:57:03.040Z,94937.47
2023-05-23T08:59:32.762Z,94889.25
2023-05-23T09:02:02.087Z,94861.63
2023-05-23T09:04:32.482Z,94932.59
2023-05-23T09:07:01.570Z,94931.91
2023-05-23T09:09:29.540Z,94940.38
2023-05-23T09:12:01.074Z,94931.47
2023-05-23T09:14:30.595Z,94909.84
2023-05-23T09:17:04.523Z,94935.59
2023-05-23T09:19:33.594Z,94893.00
2023-05-23T09:22:03.725Z,94921.41
2023-05-23T09:24:36.266Z,94924.75
2023-05-23T09:27:07.098Z,94929.16
2023-05-23T09:29:38.748Z,94925.41
2023-05-23T09:32:13.177Z,94902.97
2023-05-23T09:34:44.283Z,94926.84
2023-05-23T09:37:19.517Z,94924.25
2023-05-23T09:39:48.768Z,94912.13
2023-05-23T09:42:23.029Z,94925.59
2023-05-23T09:44:51.290Z,94913.06
2023-05-23T09:47:19.572Z,94882.72
2023-05-23T09:49:48.258Z,94909.75
2023-05-23T09:52:16.229Z,94909.38
2023-05-23T09:54:44.537Z,94909.44
2023-05-23T09:57:12.810Z,94900.19
2023-05-23T09:59:43.611Z,94893.91
2023-05-23T10:02:13.815Z,94893.91
2023-05-23T10:04:43.121Z,94904.38
2023-05-23T10:07:18.314Z,94840.84
2023-05-23T10:09:52.207Z,94906.25
2023-05-23T10:12:45.837Z,94903.97
2023-05-23T10:15:18.019Z,94884.84
2023-05-23T10:17:59.679Z,94908.53
2023-05-23T10:20:32.217Z,94906.28
2023-05-23T10:23:01.784Z,94847.53
2023-05-23T10:25:29.867Z,94896.53
2023-05-23T10:28:02.446Z,94887.50
2023-05-23T10:30:33.641Z,94887.94
2023-05-23T10:33:03.270Z,94881.88
2023-05-23T10:35:43.756Z,94861.94
2023-05-23T10:38:22.300Z,94888.97
2023-05-23T10:40:56.366Z,94890.56
2023-05-23T10:43:30.784Z,94870.34
2023-05-23T10:46:00.086Z,94874.03
2023-05-23T10:48:35.586Z,94875.47
2023-05-23T10:51:07.970Z,94806.75
2023-05-23T10:53:37.872Z,94878.75
2023-05-23T10:56:09.597Z,94878.22
2023-05-23T10:58:39.026Z,94878.00
2023-05-23T11:01:09.506Z,94793.19
2023-05-23T11:03:39.324Z,94863.53
2023-05-23T11:06:07.952Z,94830.88
2023-05-23T11:08:47.862Z,94857.63
2023-05-23T11:11:16.653Z,94853.56
2023-05-23T11:14:00.678Z,94858.63
2023-05-23T11:16:32.005Z,94844.34
2023-05-23T11:19:26.468Z,94862.91
2023-05-23T11:21:56.241Z,94856.72
2023-05-23T11:24:24.540Z,94851.50
2023-05-23T11:27:00.307Z,94849.72
2023-05-23T11:29:29.665Z,94854.84
2023-05-23T11:31:59.484Z,94843.56
2023-05-23T11:34:28.510Z,94784.88
2023-05-23T11:36:57.643Z,94819.97
2023-05-23T11:39:25.718Z,94817.34
2023-05-23T11:42:03.320Z,94802.50
2023-05-23T11:44:31.594Z,94835.38
2023-05-23T11:47:05.174Z,94832.25
2023-05-23T11:49:33.881Z,94789.69
2023-05-23T11:52:03.379Z,94842.63
2023-05-23T11:54:31.504Z,94811.69
2023-05-23T11:56:59.650Z,94837.91
2023-05-23T11:59:28.611Z,94757.69
2023-05-23T12:01:56.875Z,94819.88
2023-05-23T12:04:27.413Z,94794.03
2023-05-23T12:06:55.711Z,94817.16
2023-05-23T12:09:23.667Z,94812.03
2023-05-23T12:11:52.222Z,94819.03
2023-05-23T12:14:20.321Z,94816.00
2023-05-23T12:16:48.496Z,94820.16
2023-05-23T12:19:18.369Z,94786.06
2023-05-23T12:21:49.421Z,94802.59
2023-05-23T12:24:18.754Z,94798.16
2023-05-23T12:26:54.416Z,94792.41
2023-05-23T12:29:23.259Z,94785.66
2023-05-23T12:31:52.574Z,94788.75
2023-05-23T12:34:23.649Z,94790.50
2023-05-23T12:37:06.271Z,94782.22
2023-05-23T12:39:45.391Z,94782.59
2023-05-23T12:42:13.400Z,94791.13
2023-05-23T12:44:43.475Z,94783.19
2023-05-23T12:47:11.908Z,94778.25
2023-05-23T12:49:39.958Z,94747.69
2023-05-23T12:52:09.307Z,94775.94
2023-05-23T12:54:37.284Z,94770.69
2023-05-23T12:57:05.284Z,94769.97
2023-05-23T12:59:33.197Z,94771.00
2023-05-23T13:02:01.909Z,94751.50
2023-05-23T13:04:31.983Z,94765.53
2023-05-23T13:07:00.374Z,94761.47
2023-05-23T13:09:29.647Z,94751.88
2023-05-23T13:11:58.892Z,94738.47
2023-05-23T13:14:27.232Z,94764.44
2023-05-23T13:16:55.279Z,94752.97
2023-05-23T13:19:23.333Z,94736.00
2023-05-23T13:21:51.413Z,94758.63
2023-05-23T13:24:19.363Z,94745.66
2023-05-23T13:26:48.635Z,94751.78
2023-05-23T13:29:16.586Z,94761.16
2023-05-23T13:31:44.617Z,94757.50
2023-05-23T13:34:12.631Z,94765.63
2023-05-23T13:36:40.812Z,94765.03
2023-05-23T13:39:08.739Z,94765.13
2023-05-23T13:41:36.709Z,94759.59
2023-05-23T13:44:06.013Z,94760.38
2023-05-23T13:46:34.401Z,94759.59
2023-05-23T13:49:02.329Z,94749.16
2023-05-23T13:51:30.299Z,94752.03
2023-05-23T13:53:58.239Z,94757.72
2023-05-23T13:56:26.150Z,94740.84
2023-05-23T13:58:54.170Z,94758.16
2023-05-23T14:01:24.472Z,94729.31
2023-05-23T14:03:52.461Z,94758.63
2023-05-23T14:06:20.361Z,94758.63
2023-05-23T14:08:48.321Z,94751.59
2023-05-23T14:11:16.262Z,94759.25
2023-05-23T14:13:44.139Z,94753.19
2023-05-23T14:16:12.125Z,94755.34
2023-05-23T14:18:41.458Z,94735.06
2023-05-23T14:21:09.384Z,94749.88
2023-05-23T14:23:37.289Z,94724.28
2023-05-23T14:26:05.643Z,94719.69
2023-05-23T14:28:33.617Z,94754.72
2023-05-23T14:31:01.769Z,94740.59
2023-05-23T14:33:29.685Z,94751.19
2023-05-23T14:36:00.970Z,94751.19
2023-05-23T14:38:28.938Z,94750.16
2023-05-23T14:40:56.838Z,94753.56
2023-05-23T14:43:24.885Z,94751.34
2023-05-23T14:45:52.936Z,94747.31
2023-05-23T14:48:21.345Z,94744.78
2023-05-23T14:50:50.522Z,94744.19
2023-05-23T14:53:22.497Z,94735.38
2023-05-23T14:55:51.004Z,94749.47
2023-05-23T14:58:19.352Z,94725.34
2023-05-23T15:00:49.420Z,94743.81
2023-05-23T15:03:17.333Z,94735.69
2023-05-23T15:05:48.443Z,94732.00
2023-05-23T15:08:18.377Z,94733.22
2023-05-23T15:10:47.728Z,94735.59
2023-05-23T15:13:15.845Z,94730.69
2023-05-23T15:15:43.863Z,94734.63
2023-05-23T15:18:21.384Z,94725.44
2023-05-23T15:20:56.257Z,94718.53
2023-05-23T15:23:24.245Z,94721.09
2023-05-23T15:25:53.761Z,94730.47
2023-05-23T15:28:21.902Z,94723.81
2023-05-23T15:30:50.091Z,94709.69
2023-05-23T15:33:18.912Z,94721.06
2023-05-23T15:35:47.344Z,94725.09
2023-05-23T15:38:17.137Z,94722.41
2023-05-23T15:40:49.024Z,94726.06
2023-05-23T15:43:18.415Z,94725.66
2023-05-23T15:45:46.449Z,94703.16
2023-05-23T15:48:14.490Z,94709.09
2023-05-23T15:50:42.495Z,94725.94
2023-05-23T15:53:10.761Z,94717.06
2023-05-23T15:55:41.218Z,94721.50
2023-05-23T15:58:10.693Z,94716.38
2023-05-23T16:00:40.506Z,94718.78
2023-05-23T16:03:08.739Z,94722.09
2023-05-23T16:05:39.082Z,94718.94
2023-05-23T16:08:07.221Z,94727.28
2023-05-23T16:10:35.155Z,94719.47
2023-05-23T16:13:03.198Z,94720.44
2023-05-23T16:15:31.310Z,94723.66
2023-05-23T16:18:00.708Z,94728.00
2023-05-23T16:20:28.648Z,94693.19
2023-05-23T16:22:56.817Z,94712.47
2023-05-23T16:25:24.693Z,94725.94
2023-05-23T16:27:52.643Z,94628.81
2023-05-23T16:30:20.912Z,94727.69
2023-05-23T16:32:48.838Z,94721.19
2023-05-23T16:35:18.194Z,94747.47
2023-05-23T16:37:46.142Z,94730.50
2023-05-23T16:40:14.099Z,94706.56
2023-05-23T16:42:42.015Z,94747.69
2023-05-23T16:45:10.422Z,94755.75
2023-05-23T16:47:38.419Z,94743.91
2023-05-23T16:50:08.522Z,94750.75
2023-05-23T16:52:39.616Z,94749.59
2023-05-23T16:55:08.248Z,94752.91
2023-05-23T16:57:36.450Z,94740.19
2023-05-23T17:00:05.580Z,94741.03
2023-05-23T17:02:33.592Z,94743.38
2023-05-23T17:05:01.660Z,94738.31
2023-05-23T17:07:29.573Z,94749.75
2023-05-23T17:09:58.823Z,94749.97
2023-05-23T17:12:27.068Z,94751.03
2023-05-23T17:14:55.038Z,94756.97
2023-05-23T17:17:23.127Z,94755.91
2023-05-23T17:19:51.462Z,94747.75
2023-05-23T17:22:19.350Z,94704.47
2023-05-23T17:24:47.250Z,94745.72
2023-05-23T17:27:16.750Z,94745.94
2023-05-23T17:29:44.691Z,94720.22
2023-05-23T17:32:12.598Z,94736.75
2023-05-23T17:34:40.639Z,94758.16
2023-05-23T17:37:09.339Z,94729.06
2023-05-23T17:39:37.219Z,94757.78
2023-05-23T17:42:05.849Z,94736.84
2023-05-23T17:44:35.090Z,94734.34
2023-05-23T17:47:03.064Z,94737.19
2023-05-23T17:49:31.035Z,94765.13
2023-05-23T17:51:59.712Z,94768.88
2023-05-23T17:54:27.633Z,94724.56
2023-05-23T17:56:55.847Z,94728.41
2023-05-23T17:59:27.290Z,94768.53
2023-05-23T18:01:56.597Z,94776.13
2023-05-23T18:04:25.122Z,94710.25
2023-05-23T18:06:53.113Z,94781.16
2023-05-23T18:09:21.502Z,94758.69
2023-05-23T18:11:49.351Z,94787.25
2023-05-23T18:14:17.246Z,94791.22
2023-05-23T18:16:45.265Z,94790.19
2023-05-23T18:19:14.669Z,94799.56
2023-05-23T18:21:42.587Z,94799.75
2023-05-23T18:24:11.870Z,94802.34
2023-05-23T18:26:42.357Z,94805.13
2023-05-23T18:29:10.405Z,94812.63
2023-05-23T18:31:38.494Z,94800.69
2023-05-23T18:34:06.953Z,94811.56
2023-05-23T18:36:36.598Z,94795.19
2023-05-23T18:39:05.398Z,94823.00
2023-05-23T18:41:33.579Z,94822.53
2023-05-23T18:44:01.510Z,94825.84
2023-05-23T18:46:30.148Z,94833.34
2023-05-23T18:48:58.590Z,94831.56
2023-05-23T18:51:27.144Z,94828.72
2023-05-23T18:53:56.386Z,94827.09
2023-05-23T18:56:24.361Z,94833.41
2023-05-23T18:58:52.526Z,94843.69
2023-05-23T19:01:20.429Z,94840.25
2023-05-23T19:03:48.582Z,94832.19
2023-05-23T19:06:16.668Z,94850.84
2023-05-23T19:08:44.565Z,94802.06
2023-05-23T19:11:14.880Z,94868.41
2023-05-23T19:13:42.832Z,94869.06
2023-05-23T19:16:10.740Z,94877.78
2023-05-23T19:18:38.791Z,94887.09
2023-05-23T19:21:06.913Z,94889.84
2023-05-23T19:23:34.858Z,94888.66
2023-05-23T19:26:03.043Z,94898.41
2023-05-23T19:28:32.377Z,94899.63
2023-05-23T19:31:00.580Z,94752.59
2023-05-23T19:33:28.574Z,94905.44
2023-05-23T19:35:56.624Z,94904.69
2023-05-23T19:38:24.762Z,94904.19
2023-05-23T19:40:53.025Z,94868.44
2023-05-23T19:43:21.078Z,94907.28
2023-05-23T19:45:50.384Z,94892.44
2023-05-23T19:48:18.616Z,94913.88
2023-05-23T19:50:47.637Z,94909.16
2023-05-23T19:53:15.616Z,94918.63
2023-05-23T19:55:43.881Z,94918.16
2023-05-23T19:58:11.884Z,94917.91
2023-05-23T20:00:40.086Z,94925.13
2023-05-23T20:03:09.694Z,94918.16
2023-05-23T20:05:37.918Z,94917.13
2023-05-23T20:08:05.955Z,94923.63
2023-05-23T20:10:40.951Z,94909.69
2023-05-23T20:13:08.939Z,94912.41
2023-05-23T20:15:39.939Z,94912.44
2023-05-23T20:18:10.006Z,94905.44
2023-05-23T20:20:37.884Z,94910.44
2023-05-23T20:23:06.767Z,94912.94
2023-05-23T20:25:35.223Z,94912.19
2023-05-23T20:28:03.149Z,94910.94
2023-05-23T20:30:31.057Z,94911.44
2023-05-23T20:32:59.216Z,94908.91
2023-05-23T20:35:29.039Z,94903.44
2023-05-23T20:37:57.183Z,94913.31
2023-05-23T20:40:25.805Z,94914.00
2023-05-23T20:42:53.780Z,94892.84
2023-05-23T20:45:21.855Z,94917.97
2023-05-23T20:47:49.746Z,94928.41
2023-05-23T20:50:19.286Z,94924.38
2023-05-23T20:52:48.777Z,94923.63
2023-05-23T20:55:16.705Z,94922.38
2023-05-23T20:57:44.673Z,94917.88
2023-05-23T21:00:13.711Z,94907.34
2023-05-23T21:02:42.473Z,94906.84
2023-05-23T21:05:12.180Z,94917.03
2023-05-23T21:07:40.540Z,94924.41
2023-05-23T21:10:10.408Z,94925.25
2023-05-23T21:12:38.351Z,94931.88
2023-05-23T21:15:07.490Z,94925.63
2023-05-23T21:17:35.442Z,94931.53
2023-05-23T21:20:03.461Z,94921.41
2023-05-23T21:22:31.516Z,94932.41
2023-05-23T21:24:59.428Z,94924.19
2023-05-23T21:27:29.322Z,94922.66
2023-05-23T21:29:57.365Z,94924.28
2023-05-23T21:32:25.294Z,94906.53
2023-05-23T21:34:53.293Z,94920.22
2023-05-23T21:37:21.233Z,94930.06
2023-05-23T21:39:52.275Z,94939.72
2023-05-23T21:42:21.330Z,94925.06
2023-05-23T21:44:50.583Z,94936.94
2023-05-23T21:47:18.470Z,94917.16
2023-05-23T21:49:46.472Z,94934.84
2023-05-23T21:52:14.486Z,94931.59
2023-05-23T21:54:42.548Z,94934.00
2023-05-23T21:57:10.532Z,94938.00
2023-05-23T21:59:38.506Z,94951.59
2023-05-23T22:02:08.263Z,94948.69
2023-05-23T22:04:36.246Z,94956.72
2023-05-23T22:07:04.264Z,94953.38
2023-05-23T22:09:32.219Z,94955.06
2023-05-23T22:12:00.208Z,94934.09
2023-05-23T22:14:28.170Z,94941.59
2023-05-23T22:16:56.229Z,94950.09
2023-05-23T22:19:26.376Z,94944.59
2023-05-23T22:21:54.400Z,94946.16
2023-05-23T22:24:22.351Z,94933.41
2023-05-23T22:26:50.361Z,94944.59
2023-05-23T22:29:18.396Z,94938.13
2023-05-23T22:31:46.883Z,94944.88
2023-05-23T22:34:15.022Z,94898.91
2023-05-23T22:36:44.316Z,94933.22
2023-05-23T22:39:12.437Z,94947.72
2023-05-23T22:41:40.706Z,94941.72
2023-05-23T22:44:08.668Z,94940.56
2023-05-23T22:46:36.681Z,94939.06
2023-05-23T22:49:04.685Z,94935.81
2023-05-23T22:51:34.187Z,94931.03
2023-05-23T22:54:04.001Z,94934.03
2023-05-23T22:56:31.948Z,94937.63
2023-05-23T22:58:59.835Z,94934.28
2023-05-23T23:01:27.901Z,94923.84
2023-05-23T23:03:55.875Z,94935.38
2023-05-23T23:06:23.798Z,94931.25
2023-05-23T23:08:51.976Z,94901.28
2023-05-23T23:11:21.963Z,94864.59
2023-05-23T23:13:49.867Z,94931.13
2023-05-23T23:16:19.636Z,94920.63
2023-05-23T23:18:49.097Z,94911.44
2023-05-23T23:21:17.161Z,94920.81
2023-05-23T23:23:45.120Z,94862.91
2023-05-23T23:26:13.318Z,94906.66
2023-05-23T23:28:42.552Z,94913.78
2023-05-23T23:31:10.627Z,94918.72
2023-05-23T23:33:38.644Z,94894.59
2023-05-23T23:36:07.314Z,94895.91
2023-05-23T23:38:35.279Z,94838.66
2023-05-23T23:41:03.292Z,94923.78
2023-05-23T23:43:31.454Z,94914.44
2023-05-23T23:46:00.748Z,94915.91
2023-05-23T23:48:28.902Z,94845.50
2023-05-23T23:50:57.077Z,94904.47
2023-05-23T23:53:24.948Z,94901.28
2023-05-23T23:55:52.874Z,94894.75
2023-05-23T23:58:20.742Z,94904.31
